createdAt,value
2022-10-21T00:00:39.875Z,13.50
2022-10-21T00:03:28.686Z,13.80
2022-10-21T00:06:16.751Z,13.70
2022-10-21T00:09:04.829Z,14.00
2022-10-21T00:11:52.893Z,14.20
2022-10-21T00:14:40.847Z,14.40
2022-10-21T00:17:28.789Z,14.30
2022-10-21T00:20:16.981Z,14.10
2022-10-21T00:23:04.996Z,14.00
2022-10-21T00:26:00.461Z,14.00
2022-10-21T00:28:51.587Z,14.00
2022-10-21T00:31:42.101Z,13.80
2022-10-21T00:34:30.961Z,14.00
2022-10-21T00:37:19.126Z,14.00
2022-10-21T00:40:10.344Z,14.00
2022-10-21T00:42:58.776Z,14.20
2022-10-21T00:45:51.135Z,13.70
2022-10-21T00:48:52.110Z,14.00
2022-10-21T00:51:40.156Z,13.80
2022-10-21T00:54:31.880Z,13.60
2022-10-21T00:57:22.497Z,13.70
2022-10-21T01:00:11.111Z,13.90
2022-10-21T01:02:59.684Z,14.10
2022-10-21T01:08:37.533Z,14.20
2022-10-21T01:11:27.081Z,14.50
2022-10-21T01:14:33.679Z,14.50
2022-10-21T01:17:49.209Z,14.30
2022-10-21T01:21:07.951Z,14.30
2022-10-21T01:24:30.146Z,14.50
2022-10-21T01:28:08.485Z,14.40
2022-10-21T01:31:08.882Z,13.90
2022-10-21T01:34:38.983Z,14.20
2022-10-21T01:38:02.271Z,14.20
2022-10-21T01:41:23.764Z,14.10
2022-10-21T01:44:35.944Z,14.10
2022-10-21T01:47:34.954Z,13.90
2022-10-21T01:50:27.467Z,13.90
2022-10-21T01:53:17.563Z,14.00
2022-10-21T01:56:06.770Z,14.20
2022-10-21T01:58:54.972Z,14.50
2022-10-21T02:01:46.910Z,14.50
2022-10-21T02:04:37.001Z,14.50
2022-10-21T02:07:30.789Z,14.40
2022-10-21T02:10:19.804Z,14.40
2022-10-21T02:13:12.538Z,14.50
2022-10-21T02:16:03.107Z,14.60
2022-10-21T02:18:50.988Z,14.70
2022-10-21T02:21:39.535Z,14.80
2022-10-21T02:24:51.258Z,14.80
2022-10-21T02:27:39.199Z,14.60
2022-10-21T02:30:35.986Z,14.40
2022-10-21T02:33:39.103Z,14.00
2022-10-21T02:36:54.594Z,14.00
2022-10-21T02:39:56.343Z,14.10
2022-10-21T02:42:58.151Z,13.80
2022-10-21T02:45:49.583Z,13.60
2022-10-21T02:48:40.719Z,13.60
2022-10-21T02:51:28.954Z,13.60
2022-10-21T02:54:17.038Z,13.80
2022-10-21T02:57:05.065Z,13.60
2022-10-21T02:59:53.079Z,13.70
2022-10-21T03:02:42.202Z,13.70
2022-10-21T03:05:32.942Z,14.00
2022-10-21T03:08:20.878Z,14.20
2022-10-21T03:11:08.836Z,14.40
2022-10-21T03:13:56.711Z,14.10
2022-10-21T03:16:44.712Z,13.70
2022-10-21T03:19:33.248Z,13.50
2022-10-21T03:22:21.418Z,14.00
2022-10-21T03:25:10.313Z,14.30
2022-10-21T03:27:58.384Z,14.50
2022-10-21T03:30:46.629Z,14.60
2022-10-21T03:33:34.767Z,14.60
2022-10-21T03:36:22.801Z,14.70
2022-10-21T03:39:14.094Z,14.80
2022-10-21T03:42:04.652Z,14.90
2022-10-21T03:44:52.739Z,14.60
2022-10-21T03:47:41.191Z,14.20
2022-10-21T03:50:29.604Z,14.30
2022-10-21T03:53:30.908Z,14.40
2022-10-21T03:56:26.219Z,14.60
2022-10-21T03:59:14.765Z,14.80
2022-10-21T04:02:02.761Z,14.80
2022-10-21T04:04:51.569Z,14.70
2022-10-21T04:07:39.813Z,14.50
2022-10-21T04:10:28.010Z,14.50
2022-10-21T04:13:16.319Z,14.50
2022-10-21T04:16:08.654Z,14.40
2022-10-21T04:18:56.810Z,14.50
2022-10-21T04:21:45.911Z,14.40
2022-10-21T04:24:33.958Z,14.10
2022-10-21T04:27:22.125Z,14.00
2022-10-21T04:30:10.701Z,14.00
2022-10-21T04:32:58.699Z,13.60
2022-10-21T04:35:46.994Z,13.60
2022-10-21T04:38:34.888Z,13.50
2022-10-21T04:41:22.874Z,13.50
2022-10-21T04:44:10.876Z,13.50
2022-10-21T04:47:01.929Z,13.60
2022-10-21T04:49:50.153Z,13.70
2022-10-21T04:52:39.759Z,13.70
2022-10-21T04:55:28.033Z,13.70
2022-10-21T04:58:19.516Z,13.70
2022-10-21T05:01:10.231Z,13.70
2022-10-21T05:03:58.182Z,13.90
2022-10-21T05:06:46.264Z,13.90
2022-10-21T05:09:34.797Z,13.80
2022-10-21T05:12:23.273Z,13.80
2022-10-21T05:15:11.763Z,13.90
2022-10-21T05:18:02.960Z,13.90
2022-10-21T05:20:53.870Z,14.00
2022-10-21T05:23:43.056Z,14.00
2022-10-21T05:26:38.496Z,14.00
2022-10-21T05:29:32.303Z,13.90
2022-10-21T05:32:22.978Z,13.60
2022-10-21T05:35:12.260Z,13.70
2022-10-21T05:38:01.982Z,13.70
2022-10-21T05:40:50.388Z,13.80
2022-10-21T05:43:39.380Z,13.80
2022-10-21T05:46:30.561Z,13.90
2022-10-21T05:49:19.157Z,14.20
2022-10-21T05:52:07.636Z,14.30
2022-10-21T05:54:56.096Z,14.30
2022-10-21T05:57:45.246Z,14.00
2022-10-21T06:00:39.109Z,14.00
2022-10-21T06:03:35.354Z,13.90
2022-10-21T06:06:24.044Z,13.90
2022-10-21T06:09:18.086Z,13.90
2022-10-21T06:12:10.809Z,14.00
2022-10-21T06:14:59.133Z,14.30
2022-10-21T06:17:47.654Z,14.40
2022-10-21T06:20:38.853Z,14.50
2022-10-21T06:23:30.210Z,14.50
2022-10-21T06:26:25.118Z,14.40
2022-10-21T06:29:16.922Z,14.20
2022-10-21T06:32:10.120Z,14.10
2022-10-21T06:35:01.628Z,14.10
2022-10-21T06:37:54.668Z,14.00
2022-10-21T06:40:58.851Z,13.90
2022-10-21T06:43:49.681Z,14.00
2022-10-21T06:46:43.616Z,14.00
2022-10-21T06:49:37.708Z,14.00
2022-10-21T06:52:52.173Z,14.20
2022-10-21T06:55:53.561Z,14.20
2022-10-21T06:59:02.503Z,14.40
2022-10-21T07:02:36.821Z,14.40
2022-10-21T07:05:23.025Z,14.60
2022-10-21T07:08:34.394Z,14.70
2022-10-21T07:11:46.974Z,14.80
2022-10-21T07:14:55.017Z,14.80
2022-10-21T07:18:02.007Z,14.80
2022-10-21T07:20:56.538Z,14.70
2022-10-21T07:24:16.440Z,14.50
2022-10-21T07:27:28.031Z,14.10
2022-10-21T07:30:25.136Z,14.10
2022-10-21T07:34:17.798Z,14.00
2022-10-21T07:41:05.435Z,14.00
2022-10-21T07:44:01.436Z,14.10
2022-10-21T07:47:12.352Z,14.20
2022-10-21T07:50:22.258Z,14.30
2022-10-21T07:54:40.266Z,14.30
2022-10-21T08:00:31.427Z,13.90
2022-10-21T08:03:21.622Z,14.00
2022-10-21T08:06:27.563Z,14.00
2022-10-21T08:09:31.699Z,14.10
2022-10-21T08:12:22.254Z,14.00
2022-10-21T08:16:22.034Z,13.90
2022-10-21T08:18:38.915Z,13.80
2022-10-21T08:21:28.791Z,13.70
2022-10-21T08:24:17.339Z,13.70
2022-10-21T08:27:06.533Z,13.80
2022-10-21T08:29:54.917Z,13.80
2022-10-21T08:32:43.107Z,13.80
2022-10-21T08:35:34.945Z,13.90
2022-10-21T08:38:23.160Z,13.90
2022-10-21T08:41:23.451Z,13.90
2022-10-21T08:44:43.414Z,13.90
2022-10-21T08:47:45.342Z,14.00
2022-10-21T08:50:48.863Z,14.10
2022-10-21T08:53:45.979Z,14.10
2022-10-21T08:56:34.021Z,14.10
2022-10-21T08:59:26.374Z,14.20
2022-10-21T09:02:29.437Z,14.20
2022-10-21T09:05:57.013Z,14.30
2022-10-21T09:09:07.799Z,14.30
2022-10-21T09:12:38.038Z,14.20
2022-10-21T09:15:52.062Z,14.20
2022-10-21T09:19:37.852Z,14.10
2022-10-21T09:22:45.655Z,14.20
2022-10-21T09:25:40.420Z,14.30
2022-10-21T09:28:29.616Z,14.40
2022-10-21T09:31:20.759Z,14.50
2022-10-21T09:34:32.133Z,14.50
2022-10-21T09:37:42.929Z,14.50
2022-10-21T09:40:41.932Z,14.50
2022-10-21T09:43:31.328Z,14.50
2022-10-21T09:46:25.912Z,14.40
2022-10-21T09:50:05.210Z,14.40
2022-10-21T09:52:53.893Z,14.50
2022-10-21T09:55:54.384Z,14.50
2022-10-21T09:59:33.437Z,14.50
2022-10-21T10:02:36.491Z,14.40
2022-10-21T10:05:47.170Z,14.50
2022-10-21T10:08:52.299Z,14.60
2022-10-21T10:12:05.256Z,14.80
2022-10-21T10:14:57.310Z,14.70
2022-10-21T10:17:51.538Z,14.90
2022-10-21T10:21:14.521Z,14.90
2022-10-21T10:24:37.264Z,14.90
2022-10-21T10:27:34.174Z,14.80
2022-10-21T10:31:15.143Z,14.80
2022-10-21T10:34:41.701Z,14.80
2022-10-21T10:37:38.274Z,14.80
2022-10-21T10:40:34.222Z,14.80
2022-10-21T10:43:35.373Z,15.00
2022-10-21T10:46:36.126Z,15.10
2022-10-21T10:49:26.395Z,15.10
2022-10-21T10:52:24.672Z,15.00
2022-10-21T10:55:19.780Z,15.00
2022-10-21T10:58:13.501Z,15.00
2022-10-21T11:01:18.532Z,15.10
2022-10-21T11:04:21.768Z,15.10
2022-10-21T11:07:26.528Z,15.10
2022-10-21T11:10:41.315Z,15.00
2022-10-21T11:13:30.381Z,15.00
2022-10-21T11:17:00.515Z,15.20
2022-10-21T11:20:14.207Z,15.20
2022-10-21T11:23:44.699Z,15.10
2022-10-21T11:26:44.798Z,15.20
2022-10-21T11:29:54.545Z,15.20
2022-10-21T11:33:03.434Z,15.30
2022-10-21T11:36:38.348Z,15.40
2022-10-21T11:39:43.114Z,15.40
2022-10-21T11:42:41.300Z,15.40
2022-10-21T11:46:05.345Z,15.30
2022-10-21T11:49:27.114Z,15.40
2022-10-21T11:52:45.263Z,15.30
2022-10-21T11:55:43.687Z,15.40
2022-10-21T12:02:50.238Z,15.60
2022-10-21T12:06:06.879Z,15.70
2022-10-21T12:09:16.308Z,15.70
2022-10-21T12:12:13.563Z,15.70
2022-10-21T12:15:19.441Z,15.70
2022-10-21T12:18:18.149Z,15.70
2022-10-21T12:21:10.974Z,15.80
2022-10-21T12:24:28.699Z,16.20
2022-10-21T12:27:41.311Z,16.70
2022-10-21T12:31:31.280Z,17.20
2022-10-21T12:34:19.668Z,17.00
2022-10-21T12:37:46.767Z,16.80
2022-10-21T12:40:40.471Z,16.80
2022-10-21T12:43:28.945Z,16.50
2022-10-21T12:46:28.417Z,16.20
2022-10-21T12:49:36.698Z,16.00
2022-10-21T12:53:09.197Z,16.20
2022-10-21T12:59:41.072Z,17.40
2022-10-21T13:02:18.030Z,19.10
2022-10-21T13:05:38.771Z,19.20
2022-10-21T13:08:51.115Z,17.80
2022-10-21T13:11:40.475Z,17.30
2022-10-21T13:14:50.236Z,17.10
2022-10-21T13:18:00.573Z,17.10
2022-10-21T13:21:36.574Z,17.20
2022-10-21T13:25:16.970Z,17.40
2022-10-21T13:29:33.595Z,19.90
2022-10-21T13:32:51.146Z,19.00
2022-10-21T13:58:28.708Z,17.00
2022-10-21T14:01:27.169Z,17.10
2022-10-21T14:04:44.218Z,17.40
2022-10-21T14:07:42.705Z,17.50
2022-10-21T14:10:45.943Z,17.50
2022-10-21T14:13:40.084Z,17.50
2022-10-21T14:18:30.198Z,17.30
2022-10-21T16:43:47.015Z,16.20
2022-10-21T16:46:49.936Z,16.20
2022-10-21T16:49:43.821Z,16.20
2022-10-21T16:52:36.726Z,16.20
2022-10-21T16:55:25.564Z,16.10
2022-10-21T16:58:13.931Z,16.10
2022-10-21T17:01:05.404Z,16.10
2022-10-21T17:03:56.187Z,16.20
2022-10-21T17:06:44.546Z,16.20
2022-10-21T17:09:36.111Z,16.20
2022-10-21T17:12:25.922Z,16.20
2022-10-21T17:15:17.986Z,16.20
2022-10-21T17:18:14.709Z,16.20
2022-10-21T17:21:07.794Z,16.20
2022-10-21T17:23:58.683Z,16.30
2022-10-21T17:26:46.735Z,16.20
2022-10-21T17:29:43.398Z,16.20
2022-10-21T17:32:37.309Z,16.40
2022-10-21T17:35:27.445Z,16.30
2022-10-21T17:38:15.826Z,16.40
2022-10-21T17:41:03.934Z,16.40
2022-10-21T17:43:52.058Z,16.30
2022-10-21T17:46:40.320Z,16.30
2022-10-21T17:49:28.632Z,16.40
2022-10-21T17:52:16.705Z,16.50
2022-10-21T17:55:07.173Z,16.30
2022-10-21T17:57:55.430Z,16.30
2022-10-21T18:00:44.736Z,16.20
2022-10-21T18:03:33.265Z,16.10
2022-10-21T18:06:22.203Z,16.30
2022-10-21T18:09:11.182Z,16.20
2022-10-21T18:12:03.456Z,16.10
2022-10-21T18:14:53.767Z,16.20
2022-10-21T18:17:43.716Z,16.20
2022-10-21T18:20:36.860Z,16.20
2022-10-21T18:23:32.355Z,16.20
2022-10-21T18:26:38.310Z,16.20
2022-10-21T18:29:33.635Z,16.20
2022-10-21T18:32:22.046Z,16.10
2022-10-21T18:35:10.588Z,16.00
2022-10-21T18:37:59.294Z,16.00
2022-10-21T18:40:56.501Z,16.00
2022-10-21T18:44:04.986Z,16.00
2022-10-21T18:46:55.934Z,16.00
2022-10-21T18:49:49.007Z,15.90
2022-10-21T18:52:37.065Z,15.90
2022-10-21T18:55:25.222Z,15.80
2022-10-21T18:58:16.540Z,15.90
2022-10-21T19:01:09.810Z,15.80
2022-10-21T19:04:00.542Z,15.80
2022-10-21T19:07:02.714Z,15.80
2022-10-21T19:09:50.960Z,15.70
2022-10-21T19:12:39.139Z,15.70
2022-10-21T19:15:27.511Z,15.70
2022-10-21T19:18:15.709Z,15.70
2022-10-21T19:21:04.775Z,15.70
2022-10-21T19:23:53.720Z,15.70
2022-10-21T19:26:44.717Z,15.70
2022-10-21T19:29:33.097Z,15.60
2022-10-21T19:32:29.349Z,15.60
2022-10-21T19:38:20.471Z,15.50
2022-10-21T19:41:20.680Z,15.50
2022-10-21T19:44:41.064Z,15.50
2022-10-21T19:47:32.459Z,15.50
2022-10-21T19:50:20.580Z,15.40
2022-10-21T19:53:11.795Z,15.50
2022-10-21T19:56:04.124Z,15.50
2022-10-21T19:58:53.099Z,15.40
2022-10-21T20:01:49.983Z,15.40
2022-10-21T20:04:38.099Z,15.40
2022-10-21T20:07:29.150Z,15.30
2022-10-21T20:10:20.545Z,15.30
2022-10-21T20:13:11.087Z,15.30
2022-10-21T20:16:00.462Z,15.40
2022-10-21T20:18:48.997Z,15.50
2022-10-21T20:21:41.181Z,15.30
2022-10-21T20:24:29.365Z,15.30
2022-10-21T20:27:19.577Z,15.30
2022-10-21T20:30:08.643Z,15.20
2022-10-21T20:32:56.691Z,15.20
2022-10-21T20:35:44.753Z,15.20
2022-10-21T20:38:33.609Z,15.30
2022-10-21T20:41:28.363Z,15.30
2022-10-21T20:44:20.604Z,15.30
2022-10-21T20:47:11.203Z,15.40
2022-10-21T20:49:59.419Z,15.30
2022-10-21T20:52:49.854Z,15.20
2022-10-21T20:55:45.303Z,15.10
2022-10-21T20:58:38.150Z,15.20
2022-10-21T21:01:33.013Z,15.40
2022-10-21T21:04:25.445Z,15.60
2022-10-21T21:07:13.769Z,15.30
2022-10-21T21:10:04.700Z,15.10
2022-10-21T21:12:52.877Z,15.30
2022-10-21T21:15:40.848Z,15.20
2022-10-21T21:18:28.852Z,15.20
2022-10-21T21:21:19.212Z,15.30
2022-10-21T21:24:07.535Z,15.30
2022-10-21T21:26:55.581Z,15.40
2022-10-21T21:29:43.526Z,15.40
2022-10-21T21:32:31.534Z,15.60
2022-10-21T21:35:19.723Z,15.60
2022-10-21T21:38:09.014Z,15.70
2022-10-21T21:40:58.789Z,15.70
2022-10-21T21:43:49.373Z,15.50
2022-10-21T21:46:37.592Z,15.50
2022-10-21T21:49:26.020Z,15.20
2022-10-21T21:52:14.245Z,15.10
2022-10-21T21:55:02.345Z,15.10
2022-10-21T21:57:50.455Z,15.20
2022-10-21T22:00:39.416Z,15.10
2022-10-21T22:03:27.564Z,15.00
2022-10-21T22:06:19.351Z,15.00
2022-10-21T22:09:11.761Z,15.00
2022-10-21T22:12:02.026Z,15.00
2022-10-21T22:14:49.987Z,14.90
2022-10-21T22:17:38.963Z,14.80
2022-10-21T22:20:27.463Z,14.90
2022-10-21T22:23:15.394Z,15.00
2022-10-21T22:26:06.681Z,15.40
2022-10-21T22:28:55.372Z,15.70
2022-10-21T22:31:43.528Z,15.40
2022-10-21T22:34:34.609Z,15.40
2022-10-21T22:50:36.881Z,14.90
2022-10-21T22:53:25.077Z,15.10
2022-10-21T22:56:13.435Z,15.40
2022-10-21T22:59:01.562Z,15.10
2022-10-21T23:01:49.418Z,15.00
2022-10-21T23:04:37.557Z,15.00
2022-10-21T23:07:27.835Z,15.00
2022-10-21T23:10:16.046Z,14.90
2022-10-21T23:13:05.997Z,15.00
2022-10-21T23:15:56.604Z,15.10
2022-10-21T23:18:44.614Z,15.00
2022-10-21T23:21:32.708Z,14.90
2022-10-21T23:24:20.830Z,14.90
2022-10-21T23:27:08.812Z,14.90
2022-10-21T23:29:56.863Z,15.10
2022-10-21T23:32:45.839Z,15.20
2022-10-21T23:35:36.769Z,15.20
2022-10-21T23:38:25.032Z,15.00
2022-10-21T23:41:13.148Z,15.10
2022-10-21T23:44:01.354Z,14.90
2022-10-21T23:46:49.368Z,15.00
2022-10-21T23:49:37.202Z,15.10
2022-10-21T23:52:25.427Z,15.30
2022-10-21T23:55:13.493Z,15.40
2022-10-21T23:58:01.997Z,15.40
